ISABELLA DAM (ISB)

Elevation: 2635' · KERN R basin · Operator: US Army Corps of Engineers

Provisional data, subject to change.
Query executed Monday at 10:22:46   clock

Select a sensor type for a plot of data.
Note: Reservoir Flows are daily averages.

Earlier

Date RES ELE    STORAGE    RES CHG    TOC STO    ABV TOC    OUTFLOW    INFLOW    FNF    PPT INC    PPTINC4    TEMP MN    TEMP MX    WINDLEN    EVP PAN   
 FEET   AF   AF   AF   AF   CFS   CFS   CFS   INCHES   INCHES   DEG F   DEG F   MILES   INCHES  
04/26/2015 2529.57 44898 0 361250 -316352 221 237 237 0.05 0.01 10 20 190 0.24
04/27/2015 2529.56 44875 -23 361250 -316375 226 234 234 0.05 0.00 8 29 130 0.30
04/28/2015 2529.55 44851 -24 361250 -316399 237 246 246 0.03 0.00 9 32 118 0.32
04/29/2015 2529.56 44875 -- 361250 -316375 251 282 282 0.00 0.00 12 30 97 0.28
04/30/2015 2529.59 44945 70 361250 -316305 264 319 319 0.00 0.00 12 32 103 0.29
05/01/2015 2529.62 45016 71 361250 -316234 281 340 340 0.00 0.00 15 32 123 0.34
05/02/2015 2529.65 45087 -- 361250 -316163 287 346 346 0.00 0.00 13 30 150 0.34
05/03/2015 2529.67 45134 -- 361250 -316116 303 350 350 0.00 0.00 13 29 147 0.34
05/04/2015 2529.66 45111 -23 361250 -316139 327 337 337 0.00 0.00 13 27 152 0.31
05/05/2015 2529.65 45087 -- 361250 -316163 327 336 336 0.00 0.00 13 25 190 0.30
05/06/2015 2529.60 44969 -118 361250 -316281 327 289 289 0.00 0.00 12 23 234 0.31
05/07/2015 2529.59 44945 -24 361250 -316305 327 330 330 0.11 0.00 5 19 186 0.22
05/08/2015 2529.55 44851 -94 361250 -316399 327 290 290 0.06 0.12 4 15 143 0.15
05/09/2015 2529.50 44734 -117 361250 -316516 324 282 282 0.06 0.05 11 21 163 0.25
05/10/2015 2529.45 44616 -118 361250 -316634 312 272 272 0.04 0.00 9 28 102 0.29
05/11/2015 2529.40 44499 -117 361250 -316751 300 260 260 0.01 0.00 12 28 111 0.29
05/12/2015 2529.34 44359 -140 361250 -316891 283 233 233 0.00 0.00 13 24 160 0.30
05/13/2015 2529.30 44266 -93 361250 -316984 274 245 245 0.00 0.00 10 21 161 0.28
05/14/2015 2529.27 44196 -70 361250 -317054 265 242 242 0.26 0.00 7 18 163 0.19
05/15/2015 2529.23 44103 -93 361250 -317147 261 225 225 0.07 0.26 7 15 158 0.16
05/16/2015 2529.21 44057 -46 361250 -317193 253 247 247 0.04 0.07 11 21 176 0.26
05/17/2015 2529.20 44033 -24 361250 -317217 240 243 243 0.00 0.04 12 24 120 0.23
05/18/2015 2529.17 43964 -69 361250 -317286 240 223 223 0.00 0.01 11 21 185 0.26
05/19/2015 2529.15 43918 -46 361250 -317332 246 241 241 0.00 0.00 10 23 184 0.28
05/20/2015 2529.12 43848 -70 361250 -317402 255 235 235 0.00 0.01 13 24 117 0.23
05/21/2015 2529.07 43733 -115 361250 -317517 250 208 208 0.00 0.00 12 17 213 0.23
05/22/2015 2529.03 43640 -93 361250 -317610 246 211 -- 0.00 0.00 10 17 209 0.18
05/23/2015 2529.04 43663 23 361250 -317587 240 269 -- 0.00 0.01 13 24 166 0.27
05/24/2015 2529.04 43663 0 361250 -317587 235 254 -- 0.00 0.02 12 26 172 0.29
05/25/2015 -- -- -- -- -- -- -- -- -- 0.00 -- -- -- --

Later | Latest

Warning! This data is preliminary and subject to revision.

Show ISB Map | Plot ISB Data | 1 Month ISB Data | Real-Time ISB Data | ISB Info